createdAt,value
2024-04-15T00:00:02.011Z,961.15
2024-04-15T00:01:02.055Z,961.12
2024-04-15T00:02:01.969Z,961.13
2024-04-15T00:03:01.966Z,961.10
2024-04-15T00:04:01.982Z,961.09
2024-04-15T00:05:01.963Z,961.10
2024-04-15T00:06:01.940Z,961.12
2024-04-15T00:07:01.937Z,961.08
2024-04-15T00:08:01.935Z,961.05
2024-04-15T00:09:01.878Z,961.08
2024-04-15T00:10:01.893Z,961.11
2024-04-15T00:11:01.863Z,961.16
2024-04-15T00:12:01.876Z,961.19
2024-04-15T00:13:01.892Z,961.17
2024-04-15T00:14:01.889Z,961.14
2024-04-15T00:15:01.842Z,961.10
2024-04-15T00:16:01.903Z,961.07
2024-04-15T00:17:01.810Z,961.08
2024-04-15T00:18:01.845Z,961.12
2024-04-15T00:19:01.855Z,961.17
2024-04-15T00:20:01.804Z,961.21
2024-04-15T00:21:01.808Z,961.23
2024-04-15T00:22:01.832Z,961.13
2024-04-15T00:23:01.786Z,961.04
2024-04-15T00:24:01.749Z,960.99
2024-04-15T00:25:01.796Z,961.01
2024-04-15T00:26:01.714Z,961.09
2024-04-15T00:27:01.744Z,961.12
2024-04-15T00:28:01.750Z,961.10
2024-04-15T00:29:01.671Z,961.08
2024-04-15T00:30:01.682Z,961.11
2024-04-15T00:31:01.694Z,961.09
2024-04-15T00:32:01.666Z,961.03
2024-04-15T00:33:01.727Z,960.98
2024-04-15T00:34:01.649Z,960.94
2024-04-15T00:35:01.626Z,960.94
2024-04-15T00:36:01.613Z,960.92
2024-04-15T00:37:01.677Z,960.88
2024-04-15T00:38:01.607Z,960.86
2024-04-15T00:39:01.678Z,960.88
2024-04-15T00:40:01.617Z,960.84
2024-04-15T00:41:01.566Z,960.74
2024-04-15T00:42:01.545Z,960.66
2024-04-15T00:43:01.571Z,960.67
2024-04-15T00:44:01.563Z,960.74
2024-04-15T00:45:01.559Z,960.78
2024-04-15T00:46:01.645Z,960.75
2024-04-15T00:47:01.574Z,960.74
2024-04-15T00:48:01.559Z,960.77
2024-04-15T00:49:01.525Z,960.84
2024-04-15T00:50:01.492Z,960.88
2024-04-15T00:51:01.519Z,960.88
2024-04-15T00:52:01.506Z,960.92
2024-04-15T00:53:01.439Z,960.93
2024-04-15T00:54:01.453Z,960.86
2024-04-15T00:55:01.609Z,960.77
2024-04-15T00:56:01.409Z,960.68
2024-04-15T00:57:01.439Z,960.66
2024-04-15T00:58:01.416Z,960.67
2024-04-15T00:59:01.416Z,960.68
2024-04-15T01:00:01.392Z,960.66
2024-04-15T01:01:01.426Z,960.58
2024-04-15T01:02:01.399Z,960.59
2024-04-15T01:03:01.330Z,960.61
2024-04-15T01:04:01.511Z,960.61
2024-04-15T01:05:01.327Z,960.61
2024-04-15T01:06:01.281Z,960.60
2024-04-15T01:07:01.303Z,960.59
2024-04-15T01:08:01.262Z,960.51
2024-04-15T01:09:01.285Z,960.49
2024-04-15T01:10:01.339Z,960.52
2024-04-15T01:11:01.679Z,960.49
2024-04-15T01:12:01.248Z,960.49
2024-04-15T01:13:01.281Z,960.49
2024-04-15T01:14:01.260Z,960.48
2024-04-15T01:15:01.186Z,960.43
2024-04-15T01:16:01.427Z,960.46
2024-04-15T01:17:01.226Z,960.51
2024-04-15T01:18:01.262Z,960.49
2024-04-15T01:19:01.204Z,960.46
2024-04-15T01:20:01.190Z,960.48
2024-04-15T01:21:01.184Z,960.49
2024-04-15T01:22:01.246Z,960.50
2024-04-15T01:23:01.176Z,960.51
2024-04-15T01:24:01.097Z,960.48
2024-04-15T01:25:01.228Z,960.44
2024-04-15T01:26:01.062Z,960.38
2024-04-15T01:27:01.075Z,960.36
2024-04-15T01:28:01.233Z,960.36
2024-04-15T01:29:01.086Z,960.38
2024-04-15T01:30:01.108Z,960.36
2024-04-15T01:31:01.086Z,960.36
2024-04-15T01:32:01.092Z,960.36
2024-04-15T01:33:01.047Z,960.34
2024-04-15T01:34:01.046Z,960.33
2024-04-15T01:35:01.020Z,960.30
2024-04-15T01:36:01.019Z,960.29
2024-04-15T01:37:01.074Z,960.27
2024-04-15T01:38:01.006Z,960.25
2024-04-15T01:39:00.996Z,960.25
2024-04-15T01:40:01.107Z,960.24
2024-04-15T01:41:00.935Z,960.25
2024-04-15T01:42:00.965Z,960.26
2024-04-15T01:43:00.978Z,960.30
2024-04-15T01:44:00.889Z,960.30
2024-04-15T01:45:00.906Z,960.30
2024-04-15T01:46:00.972Z,960.28
2024-04-15T01:47:00.900Z,960.27
2024-04-15T01:48:00.955Z,960.25
2024-04-15T01:49:00.889Z,960.26
2024-04-15T01:50:00.869Z,960.26
2024-04-15T01:51:00.879Z,960.25
2024-04-15T01:52:01.000Z,960.25
2024-04-15T01:53:00.851Z,960.24
2024-04-15T01:54:00.777Z,960.23
2024-04-15T01:55:00.963Z,960.23
2024-04-15T01:56:00.805Z,960.25
2024-04-15T01:57:00.761Z,960.25
2024-04-15T01:58:00.893Z,960.27
2024-04-15T01:59:00.732Z,960.25
2024-04-15T02:00:00.744Z,960.24
2024-04-15T02:01:00.796Z,960.21
2024-04-15T02:02:00.728Z,960.16
2024-04-15T02:03:00.757Z,960.14
2024-04-15T02:04:00.876Z,960.12
2024-04-15T02:05:00.818Z,960.11
2024-04-15T02:06:00.799Z,960.12
2024-04-15T02:07:00.824Z,960.14
2024-04-15T02:08:00.730Z,960.13
2024-04-15T02:09:00.808Z,960.12
2024-04-15T02:10:00.901Z,960.11
2024-04-15T02:11:00.661Z,960.12
2024-04-15T02:12:00.640Z,960.13
2024-04-15T02:13:00.739Z,960.14
2024-04-15T02:14:00.597Z,960.15
2024-04-15T02:15:00.879Z,960.14
2024-04-15T02:16:00.642Z,960.15
2024-04-15T02:17:00.575Z,960.18
2024-04-15T02:18:00.702Z,960.20
2024-04-15T02:19:00.649Z,960.18
2024-04-15T02:20:00.512Z,960.18
2024-04-15T02:21:00.511Z,960.19
2024-04-15T02:22:00.637Z,960.18
2024-04-15T02:23:00.518Z,960.19
2024-04-15T02:24:00.515Z,960.19
2024-04-15T02:25:00.573Z,960.19
2024-04-15T02:26:00.450Z,960.17
2024-04-15T02:27:00.440Z,960.19
2024-04-15T02:28:00.462Z,960.19
2024-04-15T02:29:00.476Z,960.18
2024-04-15T02:30:00.435Z,960.18
2024-04-15T02:31:00.425Z,960.20
2024-04-15T02:32:00.460Z,960.23
2024-04-15T02:33:00.435Z,960.21
2024-04-15T02:34:00.432Z,960.19
2024-04-15T02:35:00.396Z,960.18
2024-04-15T02:36:00.404Z,960.16
2024-04-15T02:37:00.418Z,960.14
2024-04-15T02:38:00.403Z,960.12
2024-04-15T02:39:00.424Z,960.09
2024-04-15T02:40:00.380Z,960.06
2024-04-15T02:41:00.400Z,960.05
2024-04-15T02:42:00.311Z,960.01
2024-04-15T02:43:00.378Z,959.98
2024-04-15T02:44:00.301Z,959.97
2024-04-15T02:45:00.291Z,959.96
2024-04-15T02:46:00.333Z,959.96
2024-04-15T02:47:00.359Z,959.95
2024-04-15T02:48:00.376Z,959.96
2024-04-15T02:49:00.353Z,959.89
2024-04-15T02:50:00.295Z,959.87
2024-04-15T02:51:00.250Z,959.85
2024-04-15T02:52:00.264Z,959.84
2024-04-15T02:53:00.202Z,959.80
2024-04-15T02:54:00.191Z,959.72
2024-04-15T02:55:00.284Z,959.67
2024-04-15T02:56:00.197Z,959.71
2024-04-15T02:57:00.195Z,959.77
2024-04-15T02:58:00.209Z,959.81
2024-04-15T02:59:00.139Z,959.84
2024-04-15T03:00:00.186Z,959.86
2024-04-15T03:01:00.192Z,959.89
2024-04-15T03:02:00.087Z,959.86
2024-04-15T03:03:00.121Z,959.79
2024-04-15T03:04:00.200Z,959.74
2024-04-15T03:05:00.202Z,959.73
2024-04-15T03:06:00.041Z,959.76
2024-04-15T03:07:00.074Z,959.81
2024-04-15T03:08:00.026Z,959.84
2024-04-15T03:09:00.112Z,959.82
2024-04-15T03:10:00.039Z,959.78
2024-04-15T03:11:00.091Z,959.71
2024-04-15T03:12:00.056Z,959.70
2024-04-15T03:13:00.030Z,959.73
2024-04-15T03:13:59.964Z,959.77
2024-04-15T03:14:59.989Z,959.80
2024-04-15T03:16:05.767Z,959.87
2024-04-15T03:17:00.023Z,959.96
2024-04-15T03:18:00.026Z,959.98
2024-04-15T03:18:59.952Z,959.96
2024-04-15T03:19:59.915Z,959.90
2024-04-15T03:20:59.906Z,959.88
2024-04-15T03:21:59.945Z,959.92
2024-04-15T03:22:59.914Z,959.96
2024-04-15T03:23:59.880Z,959.95
2024-04-15T03:24:59.869Z,959.90
2024-04-15T03:25:59.829Z,959.85
2024-04-15T03:26:59.811Z,959.80
2024-04-15T03:27:59.855Z,959.75
2024-04-15T03:28:59.814Z,959.67
2024-04-15T03:29:59.791Z,959.60
2024-04-15T03:30:59.820Z,959.56
2024-04-15T03:31:59.838Z,959.51
2024-04-15T03:32:59.864Z,959.46
2024-04-15T03:33:59.801Z,959.45
2024-04-15T03:34:59.825Z,959.42
2024-04-15T03:35:59.757Z,959.41
2024-04-15T03:36:59.860Z,959.42
2024-04-15T03:37:59.765Z,959.46
2024-04-15T03:38:59.787Z,959.45
2024-04-15T03:39:59.748Z,959.42
2024-04-15T03:40:59.707Z,959.36
2024-04-15T03:41:59.728Z,959.35
2024-04-15T03:42:59.708Z,959.33
2024-04-15T03:43:59.671Z,959.26
2024-04-15T03:44:59.640Z,959.15
2024-04-15T03:45:59.677Z,959.09
2024-04-15T03:46:59.739Z,959.06
2024-04-15T03:48:00.449Z,959.11
2024-04-15T03:48:59.610Z,959.17
2024-04-15T03:49:59.619Z,959.22
2024-04-15T03:50:59.591Z,959.28
2024-04-15T03:51:59.617Z,959.26
2024-04-15T03:52:59.648Z,959.31
2024-04-15T03:53:59.593Z,959.30
2024-04-15T03:54:59.662Z,959.24
2024-04-15T03:55:59.558Z,959.22
2024-04-15T03:56:59.537Z,959.19
2024-04-15T03:57:59.524Z,959.20
2024-04-15T03:58:59.557Z,959.20
2024-04-15T03:59:59.514Z,959.14
2024-04-15T04:00:59.531Z,959.19
2024-04-15T04:01:59.527Z,959.28
2024-04-15T04:02:59.454Z,959.27
2024-04-15T04:03:59.543Z,959.23
2024-04-15T04:04:59.566Z,959.18
2024-04-15T04:06:09.639Z,959.12
2024-04-15T04:06:59.527Z,959.11
2024-04-15T04:07:59.482Z,959.16
2024-04-15T04:08:59.356Z,959.23
2024-04-15T04:09:59.384Z,959.31
2024-04-15T04:10:59.364Z,959.38
2024-04-15T04:11:59.306Z,959.38
2024-04-15T04:12:59.332Z,959.34
2024-04-15T04:13:59.320Z,959.31
2024-04-15T04:14:59.282Z,959.28
2024-04-15T04:15:59.356Z,959.27
2024-04-15T04:16:59.260Z,959.26
2024-04-15T04:17:59.301Z,959.27
2024-04-15T04:18:59.276Z,959.30
2024-04-15T04:19:59.257Z,959.32
2024-04-15T04:20:59.251Z,959.35
2024-04-15T04:21:59.234Z,959.34
2024-04-15T04:22:59.217Z,959.32
2024-04-15T04:23:59.204Z,959.30
2024-04-15T04:24:59.224Z,959.32
2024-04-15T04:25:59.171Z,959.34
2024-04-15T04:26:59.188Z,959.36
2024-04-15T04:27:59.180Z,959.40
2024-04-15T04:28:59.173Z,959.42
2024-04-15T04:29:59.139Z,959.39
2024-04-15T04:30:59.134Z,959.39
2024-04-15T04:31:59.127Z,959.36
2024-04-15T04:32:59.142Z,959.36
2024-04-15T04:33:59.139Z,959.35
2024-04-15T04:34:59.102Z,959.31
2024-04-15T04:35:59.167Z,959.30
2024-04-15T04:36:59.102Z,959.32
2024-04-15T04:37:59.061Z,959.36
2024-04-15T04:38:59.073Z,959.39
2024-04-15T04:39:59.046Z,959.38
2024-04-15T04:40:59.011Z,959.37
2024-04-15T04:41:59.066Z,959.35
2024-04-15T04:42:59.028Z,959.34
2024-04-15T04:43:58.995Z,959.34
2024-04-15T04:44:58.981Z,959.33
2024-04-15T04:45:59.020Z,959.32
2024-04-15T04:46:59.024Z,959.30
2024-04-15T04:47:58.971Z,959.30
2024-04-15T04:48:59.020Z,959.32
2024-04-15T04:49:58.916Z,959.32
2024-04-15T04:50:58.944Z,959.30
2024-04-15T04:51:58.951Z,959.27
2024-04-15T04:52:58.909Z,959.37
2024-04-15T04:53:58.906Z,959.45
2024-04-15T04:54:58.893Z,959.52
2024-04-15T04:55:58.851Z,959.55
2024-04-15T04:56:58.866Z,959.52
2024-04-15T04:57:58.870Z,959.47
2024-04-15T04:58:58.835Z,959.47
2024-04-15T04:59:58.833Z,959.48
2024-04-15T05:00:58.874Z,959.48
2024-04-15T05:01:58.995Z,959.52
2024-04-15T05:02:58.900Z,959.59
2024-04-15T05:03:58.909Z,959.60
2024-04-15T05:04:58.781Z,959.60
2024-04-15T05:05:58.803Z,959.61
2024-04-15T05:06:58.769Z,959.65
2024-04-15T05:07:58.717Z,959.65
2024-04-15T05:08:58.727Z,959.61
2024-04-15T05:09:58.733Z,959.61
2024-04-15T05:10:58.712Z,959.62
2024-04-15T05:11:58.724Z,959.63
2024-04-15T05:12:58.717Z,959.63
2024-04-15T05:13:58.716Z,959.64
2024-04-15T05:14:58.650Z,959.65
2024-04-15T05:16:01.611Z,959.61
2024-04-15T05:16:58.686Z,959.56
2024-04-15T05:17:58.690Z,959.50
2024-04-15T05:18:58.664Z,959.52
2024-04-15T05:19:58.588Z,959.55
2024-04-15T05:20:58.596Z,959.58
2024-04-15T05:21:58.621Z,959.58
2024-04-15T05:22:58.563Z,959.58
2024-04-15T05:23:58.550Z,959.58
2024-04-15T05:24:58.627Z,959.60
2024-04-15T05:25:58.547Z,959.62
2024-04-15T05:26:58.942Z,959.61
2024-04-15T05:27:58.581Z,959.58
2024-04-15T05:28:59.336Z,959.61
2024-04-15T05:29:58.518Z,959.59
2024-04-15T05:30:58.537Z,959.65
2024-04-15T05:31:58.508Z,959.67
2024-04-15T05:32:58.483Z,959.60
2024-04-15T05:33:58.543Z,959.60
2024-04-15T05:34:58.488Z,959.63
2024-04-15T05:35:58.478Z,959.66
2024-04-15T05:36:58.459Z,959.70
2024-04-15T05:38:04.920Z,959.67
2024-04-15T05:38:58.416Z,959.67
2024-04-15T05:39:58.458Z,959.66
2024-04-15T05:40:58.431Z,959.60
2024-04-15T05:41:58.395Z,959.58
2024-04-15T05:42:58.489Z,959.58
2024-04-15T05:43:58.373Z,959.61
2024-04-15T05:44:58.343Z,959.59
2024-04-15T05:45:59.919Z,959.58
2024-04-15T05:46:58.351Z,959.58
2024-04-15T05:47:58.371Z,959.56
2024-04-15T05:48:58.351Z,959.53
2024-04-15T05:49:58.302Z,959.50
2024-04-15T05:50:58.301Z,959.46
2024-04-15T05:51:58.345Z,959.44
2024-04-15T05:52:58.371Z,959.44
2024-04-15T05:53:58.317Z,959.45
2024-04-15T05:54:58.256Z,959.46
2024-04-15T05:55:58.235Z,959.47
2024-04-15T05:56:58.314Z,959.46
2024-04-15T05:57:58.240Z,959.46
2024-04-15T05:58:58.213Z,959.44
2024-04-15T05:59:58.215Z,959.45
2024-04-15T06:00:58.424Z,959.41
2024-04-15T06:01:58.312Z,959.42
2024-04-15T06:02:58.243Z,959.43
2024-04-15T06:03:58.162Z,959.43
2024-04-15T06:04:58.126Z,959.46
2024-04-15T06:05:58.256Z,959.49
2024-04-15T06:06:58.110Z,959.51
2024-04-15T06:07:58.099Z,959.52
2024-04-15T06:08:58.078Z,959.53
2024-04-15T06:09:58.136Z,959.55
2024-04-15T06:10:58.105Z,959.60
2024-04-15T06:11:58.058Z,959.61
2024-04-15T06:12:58.080Z,959.65
2024-04-15T06:13:58.056Z,959.66
2024-04-15T06:14:58.027Z,959.67
2024-04-15T06:15:58.378Z,959.67
2024-04-15T06:16:58.049Z,959.68
2024-04-15T06:17:58.114Z,959.71
2024-04-15T06:18:58.032Z,959.77
2024-04-15T06:19:58.002Z,959.81
2024-04-15T06:20:57.972Z,959.79
2024-04-15T06:21:58.004Z,959.76
2024-04-15T06:22:57.972Z,959.74
2024-04-15T06:23:57.977Z,959.73
2024-04-15T06:24:57.974Z,959.73
2024-04-15T06:25:57.991Z,959.72
2024-04-15T06:26:57.920Z,959.73
2024-04-15T06:27:57.959Z,959.76
2024-04-15T06:28:57.899Z,959.70
2024-04-15T06:29:57.885Z,959.68
2024-04-15T06:30:58.200Z,959.68
2024-04-15T06:31:57.892Z,959.69
2024-04-15T06:32:57.937Z,959.66
2024-04-15T06:33:57.985Z,959.66
2024-04-15T06:34:57.823Z,959.64
2024-04-15T06:35:57.947Z,959.60
2024-04-15T06:36:57.964Z,959.51
2024-04-15T06:37:57.941Z,959.43
2024-04-15T06:38:57.836Z,959.43
2024-04-15T06:39:57.824Z,959.49
2024-04-15T06:40:57.859Z,959.54
2024-04-15T06:41:57.778Z,959.56
2024-04-15T06:42:57.952Z,959.57
2024-04-15T06:43:57.833Z,959.57
2024-04-15T06:44:57.763Z,959.57
2024-04-15T06:45:57.773Z,959.57
2024-04-15T06:46:57.737Z,959.59
2024-04-15T06:47:57.704Z,959.58
2024-04-15T06:48:57.843Z,959.57
2024-04-15T06:49:57.836Z,959.58
2024-04-15T06:50:57.747Z,959.58
2024-04-15T06:51:57.719Z,959.58
2024-04-15T06:52:57.674Z,959.51
2024-04-15T06:53:57.647Z,959.49
2024-04-15T06:54:57.658Z,959.47
2024-04-15T06:55:57.615Z,959.47
2024-04-15T06:56:57.804Z,959.46
2024-04-15T06:57:57.737Z,959.46
2024-04-15T06:58:57.615Z,959.48
2024-04-15T06:59:57.568Z,959.51
2024-04-15T07:00:57.712Z,959.53
2024-04-15T07:01:57.677Z,959.56
2024-04-15T07:02:57.551Z,959.58
2024-04-15T07:03:57.623Z,959.59
2024-04-15T07:04:57.550Z,959.61
2024-04-15T07:05:57.505Z,959.64
2024-04-15T07:06:57.520Z,959.61
2024-04-15T07:07:57.542Z,959.61
2024-04-15T07:08:57.478Z,959.60
2024-04-15T07:09:58.002Z,959.63
2024-04-15T07:10:57.500Z,959.64
2024-04-15T07:11:57.446Z,959.64
2024-04-15T07:12:57.512Z,959.62
2024-04-15T07:13:57.696Z,959.64
2024-04-15T07:14:57.433Z,959.66
2024-04-15T07:15:57.502Z,959.65
2024-04-15T07:16:57.567Z,959.60
2024-04-15T07:17:57.448Z,959.58
2024-04-15T07:18:57.425Z,959.57
2024-04-15T07:19:57.428Z,959.58
2024-04-15T07:20:57.331Z,959.57
2024-04-15T07:21:57.362Z,959.57
2024-04-15T07:22:57.501Z,959.59
2024-04-15T07:23:57.343Z,959.60
2024-04-15T07:24:57.481Z,959.65
2024-04-15T07:25:57.410Z,959.66
2024-04-15T07:26:57.305Z,959.68
2024-04-15T07:27:57.451Z,959.69
2024-04-15T07:28:57.283Z,959.70
2024-04-15T07:29:57.290Z,959.67
2024-04-15T07:30:57.396Z,959.66
2024-04-15T07:31:57.314Z,959.67
2024-04-15T07:32:57.508Z,959.68
2024-04-15T07:33:57.248Z,959.68
2024-04-15T07:34:57.206Z,959.71
2024-04-15T07:35:57.286Z,959.71
2024-04-15T07:36:57.223Z,959.68
2024-04-15T07:37:57.187Z,959.63
2024-04-15T07:38:57.177Z,959.63
2024-04-15T07:39:58.990Z,959.60
2024-04-15T07:40:57.162Z,959.58
2024-04-15T07:41:57.148Z,959.59
2024-04-15T07:42:57.190Z,959.51
2024-04-15T07:43:57.121Z,959.45
2024-04-15T07:44:57.117Z,959.44
2024-04-15T07:45:57.201Z,959.40
2024-04-15T07:46:57.137Z,959.40
2024-04-15T07:47:57.112Z,959.41
2024-04-15T07:48:57.388Z,959.42
2024-04-15T07:49:57.096Z,959.43
2024-04-15T07:50:57.099Z,959.42
2024-04-15T07:51:57.087Z,959.40
2024-04-15T07:52:57.096Z,959.36
2024-04-15T07:53:57.240Z,959.39
2024-04-15T07:54:57.069Z,959.36
2024-04-15T07:55:56.983Z,959.36
2024-04-15T07:56:56.997Z,959.40
2024-04-15T07:57:56.975Z,959.40
2024-04-15T07:58:57.016Z,959.41
2024-04-15T07:59:56.981Z,959.41
2024-04-15T08:00:57.016Z,959.37
2024-04-15T08:01:57.402Z,959.32
2024-04-15T08:02:57.016Z,959.22
2024-04-15T08:03:57.012Z,959.19
2024-04-15T08:04:56.949Z,959.22
2024-04-15T08:05:56.883Z,959.22
2024-04-15T08:07:06.687Z,959.19
2024-04-15T08:07:56.904Z,959.18
2024-04-15T08:08:56.902Z,959.19
2024-04-15T08:09:56.888Z,959.15
2024-04-15T08:10:56.890Z,959.17
2024-04-15T08:11:56.826Z,959.17
2024-04-15T08:12:56.863Z,959.15
2024-04-15T08:13:56.815Z,959.16
2024-04-15T08:14:56.784Z,959.18
2024-04-15T08:15:56.823Z,959.19
2024-04-15T08:16:56.851Z,959.20
2024-04-15T08:17:56.803Z,959.18
2024-04-15T08:18:56.801Z,959.18
2024-04-15T08:19:56.730Z,959.18
2024-04-15T08:20:56.747Z,959.19
2024-04-15T08:21:56.756Z,959.22
2024-04-15T08:22:56.754Z,959.21
2024-04-15T08:23:56.697Z,959.18
2024-04-15T08:24:56.794Z,959.18
2024-04-15T08:25:56.666Z,959.16
2024-04-15T08:26:56.651Z,959.12
2024-04-15T08:27:56.703Z,959.10
2024-04-15T08:28:56.646Z,959.08
2024-04-15T08:29:56.625Z,959.05
2024-04-15T08:30:56.614Z,958.98
2024-04-15T08:31:56.669Z,958.97
2024-04-15T08:32:56.693Z,958.93
2024-04-15T08:33:56.682Z,958.86
2024-04-15T08:34:56.604Z,958.80
2024-04-15T08:35:56.581Z,958.80
2024-04-15T08:36:56.570Z,958.83
2024-04-15T08:37:56.535Z,958.85
2024-04-15T08:38:56.558Z,958.82
2024-04-15T08:39:56.558Z,958.77
2024-04-15T08:40:56.494Z,958.78
2024-04-15T08:42:04.550Z,958.80
2024-04-15T08:42:56.527Z,958.80
2024-04-15T08:43:56.480Z,958.77
2024-04-15T08:44:56.505Z,958.76
2024-04-15T08:45:59.284Z,958.78
2024-04-15T08:46:56.670Z,958.79
2024-04-15T08:47:56.461Z,958.77
2024-04-15T08:48:56.460Z,958.75
2024-04-15T08:49:56.438Z,958.72
2024-04-15T08:50:56.414Z,958.69
2024-04-15T08:51:56.443Z,958.65
2024-04-15T08:52:56.428Z,958.59
2024-04-15T08:53:56.372Z,958.54
2024-04-15T08:54:56.405Z,958.51
2024-04-15T08:55:56.401Z,958.50
2024-04-15T08:56:56.367Z,958.51
2024-04-15T08:57:56.341Z,958.51
2024-04-15T08:58:56.311Z,958.49
2024-04-15T08:59:56.310Z,958.48
2024-04-15T09:00:56.412Z,958.48
2024-04-15T09:01:56.330Z,958.48
2024-04-15T09:02:56.324Z,958.53
2024-04-15T09:03:56.398Z,958.58
2024-04-15T09:04:58.904Z,958.60
2024-04-15T09:05:56.278Z,958.60
2024-04-15T09:06:56.276Z,958.58
2024-04-15T09:07:56.240Z,958.54
2024-04-15T09:08:56.229Z,958.53
2024-04-15T09:09:56.259Z,958.50
2024-04-15T09:10:56.229Z,958.49
2024-04-15T09:11:56.325Z,958.48
2024-04-15T09:12:56.319Z,958.47
2024-04-15T09:13:56.181Z,958.47
2024-04-15T09:14:56.186Z,958.44
2024-04-15T09:15:56.205Z,958.43
2024-04-15T09:16:56.219Z,958.42
2024-04-15T09:17:56.166Z,958.41
2024-04-15T09:18:56.168Z,958.40
2024-04-15T09:19:56.149Z,958.38
2024-04-15T09:21:00.918Z,958.41
2024-04-15T09:21:56.148Z,958.42
2024-04-15T09:22:56.126Z,958.43
2024-04-15T09:23:56.084Z,958.46
2024-04-15T09:24:56.077Z,958.47
2024-04-15T09:25:56.056Z,958.47
2024-04-15T09:26:56.058Z,958.50
2024-04-15T09:27:56.056Z,958.50
2024-04-15T09:28:56.056Z,958.51
2024-04-15T09:29:56.494Z,958.54
2024-04-15T09:30:56.019Z,958.52
2024-04-15T09:31:56.045Z,958.53
2024-04-15T09:32:56.063Z,958.53
2024-04-15T09:33:56.062Z,958.52
2024-04-15T09:34:55.954Z,958.49
2024-04-15T09:35:55.962Z,958.46
2024-04-15T09:36:55.971Z,958.48
2024-04-15T09:37:55.968Z,958.47
2024-04-15T09:38:55.911Z,958.48
2024-04-15T09:39:55.909Z,958.45
2024-04-15T09:40:55.888Z,958.44
2024-04-15T09:41:55.951Z,958.46
2024-04-15T09:42:55.923Z,958.43
2024-04-15T09:43:55.895Z,958.40
2024-04-15T09:44:55.887Z,958.40
2024-04-15T09:45:55.978Z,958.40
2024-04-15T09:46:55.864Z,958.40
2024-04-15T09:47:55.989Z,958.40
2024-04-15T09:48:55.903Z,958.41
2024-04-15T09:49:55.878Z,958.39
2024-04-15T09:50:55.915Z,958.34
2024-04-15T09:51:55.836Z,958.31
2024-04-15T09:52:55.766Z,958.30
2024-04-15T09:53:55.756Z,958.29
2024-04-15T09:54:55.839Z,958.27
2024-04-15T09:55:55.745Z,958.23
2024-04-15T09:56:55.755Z,958.20
2024-04-15T09:57:55.725Z,958.16
2024-04-15T09:58:55.719Z,958.14
2024-04-15T09:59:55.675Z,958.13
2024-04-15T10:00:55.756Z,958.16
2024-04-15T10:01:55.712Z,958.13
2024-04-15T10:02:55.727Z,958.09
2024-04-15T10:03:55.776Z,958.09
2024-04-15T10:04:56.688Z,958.09
2024-04-15T10:05:55.642Z,958.05
2024-04-15T10:06:55.699Z,958.02
2024-04-15T10:07:55.649Z,957.99
2024-04-15T10:08:55.604Z,957.97
2024-04-15T10:09:55.615Z,957.93
2024-04-15T10:10:55.632Z,957.90
2024-04-15T10:11:55.658Z,957.88
2024-04-15T10:12:55.576Z,957.89
2024-04-15T10:13:55.573Z,957.89
2024-04-15T10:14:55.551Z,957.89
2024-04-15T10:15:55.621Z,957.93
2024-04-15T10:16:55.618Z,957.92
2024-04-15T10:17:55.674Z,957.90
2024-04-15T10:18:55.583Z,957.85
2024-04-15T10:19:55.504Z,957.82
2024-04-15T10:20:55.503Z,957.77
2024-04-15T10:21:55.522Z,957.69
2024-04-15T10:22:56.409Z,957.65
2024-04-15T10:23:55.638Z,957.63
2024-04-15T10:24:55.500Z,957.67
2024-04-15T10:25:55.496Z,957.66
2024-04-15T10:26:55.429Z,957.71
2024-04-15T10:27:55.474Z,957.77
2024-04-15T10:28:55.823Z,957.81
2024-04-15T10:29:55.380Z,957.75
2024-04-15T10:30:55.418Z,957.70
2024-04-15T10:31:55.429Z,957.68
2024-04-15T10:32:55.418Z,957.75
2024-04-15T10:33:55.366Z,957.81
2024-04-15T10:34:55.342Z,957.77
2024-04-15T10:35:55.347Z,957.69
2024-04-15T10:36:55.409Z,957.68
2024-04-15T10:37:55.299Z,957.65
2024-04-15T10:38:55.368Z,957.67
2024-04-15T10:39:55.362Z,957.76
2024-04-15T10:40:55.284Z,957.79
2024-04-15T10:41:55.287Z,957.74
2024-04-15T10:42:55.471Z,957.65
2024-04-15T10:43:55.234Z,957.58
2024-04-15T10:44:55.223Z,957.55
2024-04-15T10:45:55.294Z,957.54
2024-04-15T10:46:55.239Z,957.54
2024-04-15T10:47:55.344Z,957.53
2024-04-15T10:48:55.212Z,957.54
2024-04-15T10:49:55.217Z,957.57
2024-04-15T10:50:55.171Z,957.58
2024-04-15T10:51:55.178Z,957.55
2024-04-15T10:52:55.150Z,957.48
2024-04-15T10:53:55.130Z,957.46
2024-04-15T10:54:55.156Z,957.41
2024-04-15T10:55:55.109Z,957.36
2024-04-15T10:56:55.169Z,957.34
2024-04-15T10:57:55.180Z,957.33
2024-04-15T10:58:55.093Z,957.33
2024-04-15T10:59:55.051Z,957.31
2024-04-15T11:00:55.193Z,957.27
2024-04-15T11:01:55.067Z,957.23
2024-04-15T11:02:55.097Z,957.20
2024-04-15T11:03:55.113Z,957.18
2024-04-15T11:04:55.118Z,957.16
2024-04-15T11:05:55.022Z,957.08
2024-04-15T11:06:55.106Z,957.05
2024-04-15T11:07:55.090Z,957.06
2024-04-15T11:08:54.995Z,957.06
2024-04-15T11:09:55.014Z,957.03
2024-04-15T11:10:54.976Z,956.99
2024-04-15T11:11:55.011Z,956.96
2024-04-15T11:12:55.001Z,956.94
2024-04-15T11:13:54.942Z,956.94
2024-04-15T11:14:54.975Z,956.91
2024-04-15T11:15:54.949Z,956.87
2024-04-15T11:16:55.079Z,956.82
2024-04-15T11:17:54.928Z,956.75
2024-04-15T11:18:54.935Z,956.70
2024-04-15T11:19:54.899Z,956.68
2024-04-15T11:20:54.888Z,956.68
2024-04-15T11:21:55.076Z,956.62
2024-04-15T11:22:54.860Z,956.63
2024-04-15T11:23:54.824Z,956.66
2024-04-15T11:24:54.829Z,956.69
2024-04-15T11:25:54.816Z,956.70
2024-04-15T11:26:54.801Z,956.70
2024-04-15T11:27:54.876Z,956.65
2024-04-15T11:28:54.771Z,956.71
2024-04-15T11:30:02.420Z,956.76
2024-04-15T11:30:54.846Z,956.67
2024-04-15T11:31:54.751Z,956.68
2024-04-15T11:32:54.847Z,956.67
2024-04-15T11:33:54.851Z,956.68
2024-04-15T11:34:54.780Z,956.73
2024-04-15T11:35:54.738Z,956.74
2024-04-15T11:36:54.740Z,956.76
2024-04-15T11:37:54.680Z,956.72
2024-04-15T11:38:54.670Z,956.74
2024-04-15T11:39:54.683Z,956.67
2024-04-15T11:40:54.709Z,956.57
2024-04-15T11:41:54.716Z,956.57
2024-04-15T11:42:54.637Z,956.53
2024-04-15T11:43:54.647Z,956.48
2024-04-15T11:44:54.654Z,956.46
2024-04-15T11:45:54.722Z,956.48
2024-04-15T11:46:54.862Z,956.47
2024-04-15T11:47:54.743Z,956.44
2024-04-15T11:48:54.748Z,956.43
2024-04-15T11:49:54.536Z,956.43
2024-04-15T11:50:54.581Z,956.30
2024-04-15T11:51:54.534Z,956.31
2024-04-15T11:52:54.542Z,956.30
2024-04-15T11:53:54.510Z,956.27
2024-04-15T11:54:54.491Z,956.21
2024-04-15T11:55:54.564Z,956.10
2024-04-15T11:56:54.465Z,956.03
2024-04-15T11:57:54.492Z,956.02
2024-04-15T11:58:54.459Z,956.07
2024-04-15T11:59:54.436Z,956.05
2024-04-15T12:00:54.649Z,955.97
2024-04-15T12:01:54.518Z,955.94
2024-04-15T12:02:54.431Z,955.91
2024-04-15T12:03:54.494Z,955.89
2024-04-15T12:04:54.556Z,955.89
2024-04-15T12:05:54.440Z,955.86
2024-04-15T12:06:54.454Z,955.86
2024-04-15T12:07:54.366Z,955.84
2024-04-15T12:08:54.373Z,955.81
2024-04-15T12:09:54.915Z,955.81
2024-04-15T12:10:54.324Z,955.82
2024-04-15T12:11:54.355Z,955.83
2024-04-15T12:12:54.370Z,955.79
2024-04-15T12:13:54.305Z,955.74
2024-04-15T12:14:54.299Z,955.67
2024-04-15T12:15:54.351Z,955.62
2024-04-15T12:16:54.453Z,955.59
2024-04-15T12:17:54.309Z,955.59
2024-04-15T12:18:54.368Z,955.56
2024-04-15T12:19:54.305Z,955.51
2024-04-15T12:20:54.318Z,955.52
2024-04-15T12:21:54.387Z,955.50
2024-04-15T12:22:54.308Z,955.47
2024-04-15T12:23:54.327Z,955.42
2024-04-15T12:25:05.382Z,955.34
2024-04-15T12:25:54.266Z,955.32
2024-04-15T12:26:54.324Z,955.32
2024-04-15T12:27:54.196Z,955.31